createdAt,value
2023-01-30T00:00:00.200Z,0.00
2023-01-30T00:01:00.142Z,0.00
2023-01-30T00:02:00.145Z,0.00
2023-01-30T00:03:00.005Z,0.00
2023-01-30T00:03:59.955Z,0.00
2023-01-30T00:04:59.899Z,0.00
2023-01-30T00:05:59.787Z,0.00
2023-01-30T00:06:59.777Z,0.00
2023-01-30T00:07:59.733Z,0.00
2023-01-30T00:08:59.657Z,0.00
2023-01-30T00:09:59.567Z,0.00
2023-01-30T00:10:59.528Z,0.00
2023-01-30T00:11:59.462Z,0.00
2023-01-30T00:12:59.381Z,0.00
2023-01-30T00:13:59.343Z,0.00
2023-01-30T00:14:59.272Z,0.00
2023-01-30T00:15:59.296Z,0.00
2023-01-30T00:16:59.115Z,0.00
2023-01-30T00:17:59.060Z,0.00
2023-01-30T00:18:59.014Z,0.00
2023-01-30T00:19:58.942Z,0.00
2023-01-30T00:20:58.882Z,0.00
2023-01-30T00:21:58.830Z,0.00
2023-01-30T00:23:01.105Z,0.00
2023-01-30T00:23:58.668Z,0.00
2023-01-30T00:24:58.726Z,0.00
2023-01-30T00:27:37.499Z,0.00
2023-01-30T00:28:38.428Z,0.00
2023-01-30T00:29:38.423Z,0.00
2023-01-30T00:30:38.357Z,0.00
2023-01-30T00:31:38.286Z,0.00
2023-01-30T00:32:38.173Z,0.00
2023-01-30T00:33:38.161Z,0.00
2023-01-30T00:34:38.096Z,0.00
2023-01-30T00:35:38.000Z,0.00
2023-01-30T00:36:37.944Z,0.00
2023-01-30T00:37:37.950Z,0.00
2023-01-30T00:38:37.856Z,0.00
2023-01-30T00:39:38.462Z,0.00
2023-01-30T00:40:37.715Z,0.00
2023-01-30T00:41:37.624Z,0.00
2023-01-30T00:42:37.559Z,0.00
2023-01-30T00:43:37.521Z,0.00
2023-01-30T00:44:37.494Z,0.00
2023-01-30T00:45:37.451Z,0.00
2023-01-30T00:46:37.278Z,0.00
2023-01-30T00:47:37.279Z,0.00
2023-01-30T00:48:37.243Z,0.00
2023-01-30T00:49:37.146Z,0.00
2023-01-30T00:50:37.050Z,0.00
2023-01-30T00:51:36.957Z,0.00
2023-01-30T00:52:36.893Z,0.00
2023-01-30T00:53:36.871Z,0.00
2023-01-30T00:54:36.799Z,0.00
2023-01-30T00:55:36.771Z,0.00
2023-01-30T00:56:36.677Z,0.00
2023-01-30T00:57:36.586Z,0.00
2023-01-30T00:58:36.529Z,0.00
2023-01-30T00:59:36.474Z,0.00
2023-01-30T01:00:36.429Z,0.00
2023-01-30T01:03:15.337Z,0.00
2023-01-30T01:04:16.293Z,0.00
2023-01-30T01:05:16.690Z,0.00
2023-01-30T01:06:16.201Z,0.00
2023-01-30T01:07:16.086Z,0.00
2023-01-30T01:08:15.973Z,0.00
2023-01-30T01:09:15.940Z,0.00
2023-01-30T01:10:15.897Z,0.00
2023-01-30T01:11:15.799Z,0.00
2023-01-30T01:12:15.717Z,0.00
2023-01-30T01:13:15.684Z,0.00
2023-01-30T01:14:15.608Z,0.00
2023-01-30T01:15:15.669Z,0.00
2023-01-30T01:16:15.502Z,0.00
2023-01-30T01:17:15.492Z,0.00
2023-01-30T01:18:15.362Z,0.00
2023-01-30T01:19:15.767Z,0.00
2023-01-30T01:20:15.237Z,0.00
2023-01-30T01:21:15.169Z,0.00
2023-01-30T01:22:15.113Z,0.00
2023-01-30T01:23:15.072Z,0.00
2023-01-30T01:24:14.989Z,0.00
2023-01-30T01:25:14.955Z,0.00
2023-01-30T01:26:14.868Z,0.00
2023-01-30T01:27:14.790Z,0.00
2023-01-30T01:28:14.801Z,0.00
2023-01-30T01:29:14.742Z,0.00
2023-01-30T01:30:14.583Z,0.00
2023-01-30T01:33:43.632Z,0.00
2023-01-30T01:34:44.490Z,0.00
2023-01-30T01:35:44.439Z,0.00
2023-01-30T01:36:59.699Z,0.00
2023-01-30T01:38:53.558Z,0.00
2023-01-30T01:39:54.512Z,0.00
2023-01-30T01:40:54.440Z,0.00
2023-01-30T01:41:54.372Z,0.00
2023-01-30T01:42:54.273Z,0.00
2023-01-30T01:43:54.250Z,0.00
2023-01-30T01:44:54.146Z,0.00
2023-01-30T01:45:54.113Z,0.00
2023-01-30T01:46:54.041Z,0.00
2023-01-30T01:47:53.988Z,0.00
2023-01-30T01:48:53.915Z,0.00
2023-01-30T01:49:53.866Z,0.00
2023-01-30T01:50:53.774Z,0.00
2023-01-30T01:51:53.702Z,0.00
2023-01-30T01:52:53.624Z,0.00
2023-01-30T01:53:53.589Z,0.00
2023-01-30T01:54:53.565Z,0.00
2023-01-30T01:58:11.922Z,0.00
2023-01-30T01:59:13.864Z,0.00
2023-01-30T02:00:12.808Z,0.00
2023-01-30T02:01:12.820Z,0.00
2023-01-30T02:02:12.693Z,0.00
2023-01-30T02:03:12.577Z,0.00
2023-01-30T02:04:12.530Z,0.00
2023-01-30T02:05:12.477Z,0.00
2023-01-30T02:06:12.370Z,0.00
2023-01-30T02:07:12.358Z,0.00
2023-01-30T02:08:12.239Z,0.00
2023-01-30T02:09:12.233Z,0.00
2023-01-30T02:10:12.116Z,0.00
2023-01-30T02:11:12.085Z,0.00
2023-01-30T02:12:12.029Z,0.00
2023-01-30T02:13:11.957Z,0.00
2023-01-30T02:14:11.883Z,0.00
2023-01-30T02:16:21.507Z,0.00
2023-01-30T02:17:22.008Z,0.00
2023-01-30T02:18:21.959Z,0.00
2023-01-30T02:19:21.840Z,0.00
2023-01-30T02:20:21.825Z,0.00
2023-01-30T02:21:21.756Z,0.00
2023-01-30T02:22:21.665Z,0.00
2023-01-30T02:23:21.579Z,0.00
2023-01-30T02:24:21.569Z,0.00
2023-01-30T02:25:21.472Z,0.00
2023-01-30T02:26:21.421Z,0.00
2023-01-30T02:27:21.339Z,0.00
2023-01-30T02:28:21.286Z,0.00
2023-01-30T02:29:21.224Z,0.00
2023-01-30T02:30:21.213Z,0.00
2023-01-30T02:31:21.244Z,0.00
2023-01-30T02:32:21.066Z,0.00
2023-01-30T02:33:21.024Z,0.00
2023-01-30T02:34:20.897Z,0.00
2023-01-30T02:35:20.996Z,0.00
2023-01-30T02:36:20.791Z,0.00
2023-01-30T02:37:20.711Z,0.00
2023-01-30T02:38:20.648Z,0.00
2023-01-30T02:39:20.603Z,0.00
2023-01-30T02:40:20.527Z,0.00
2023-01-30T02:41:20.489Z,0.00
2023-01-30T02:42:20.458Z,0.00
2023-01-30T02:43:20.360Z,0.00
2023-01-30T02:44:20.304Z,0.00
2023-01-30T02:45:20.590Z,0.00
2023-01-30T02:46:20.127Z,0.00
2023-01-30T02:47:20.081Z,0.00
2023-01-30T02:48:20.054Z,0.00
2023-01-30T02:49:19.979Z,0.00
2023-01-30T02:50:19.881Z,0.00
2023-01-30T02:51:19.872Z,0.00
2023-01-30T02:52:19.765Z,0.00
2023-01-30T02:53:19.721Z,0.00
2023-01-30T02:54:19.660Z,0.00
2023-01-30T02:55:19.878Z,0.00
2023-01-30T02:56:19.530Z,0.00
2023-01-30T02:57:19.448Z,0.00
2023-01-30T02:58:19.415Z,0.00
2023-01-30T02:59:19.332Z,0.00
2023-01-30T03:00:19.251Z,0.00
2023-01-30T03:01:19.230Z,0.00
2023-01-30T03:02:19.193Z,0.00
2023-01-30T03:03:19.111Z,0.00
2023-01-30T03:04:19.032Z,0.00
2023-01-30T03:05:19.265Z,0.00
2023-01-30T03:06:18.863Z,0.00
2023-01-30T03:07:18.834Z,0.00
2023-01-30T03:08:18.804Z,0.00
2023-01-30T03:09:39.640Z,0.00
2023-01-30T03:10:18.583Z,0.00
2023-01-30T03:11:18.553Z,0.00
2023-01-30T03:12:18.464Z,0.00
2023-01-30T03:13:18.480Z,0.00
2023-01-30T03:14:18.360Z,0.00
2023-01-30T03:15:18.602Z,0.00
2023-01-30T03:16:18.326Z,0.00
2023-01-30T03:17:18.189Z,0.00
2023-01-30T03:18:18.104Z,0.00
2023-01-30T03:19:18.058Z,0.00
2023-01-30T03:20:17.975Z,0.00
2023-01-30T03:21:17.953Z,0.00
2023-01-30T03:22:17.852Z,0.00
2023-01-30T03:23:17.889Z,0.00
2023-01-30T03:24:17.758Z,0.00
2023-01-30T03:25:18.119Z,0.00
2023-01-30T03:26:17.604Z,0.00
2023-01-30T03:28:26.721Z,0.00
2023-01-30T03:29:27.710Z,0.00
2023-01-30T03:30:27.628Z,0.00
2023-01-30T03:31:27.610Z,0.00
2023-01-30T03:32:27.489Z,0.00
2023-01-30T03:33:27.491Z,0.00
2023-01-30T03:34:27.358Z,0.00
2023-01-30T03:35:27.303Z,0.00
2023-01-30T03:36:27.239Z,0.00
2023-01-30T03:37:27.175Z,0.00
2023-01-30T03:38:27.079Z,0.00
2023-01-30T03:39:27.051Z,0.00
2023-01-30T03:40:26.956Z,0.00
2023-01-30T03:41:26.920Z,0.00
2023-01-30T03:42:26.850Z,0.00
2023-01-30T03:43:26.794Z,0.00
2023-01-30T03:44:26.731Z,0.00
2023-01-30T03:45:26.710Z,0.00
2023-01-30T03:46:26.588Z,0.00
2023-01-30T03:47:26.558Z,0.00
2023-01-30T03:48:26.496Z,0.00
2023-01-30T03:49:26.436Z,0.00
2023-01-30T03:50:26.370Z,0.00
2023-01-30T03:51:26.282Z,0.00
2023-01-30T03:52:26.248Z,0.00
2023-01-30T03:53:26.196Z,0.00
2023-01-30T03:54:26.060Z,0.00
2023-01-30T03:55:26.028Z,0.00
2023-01-30T03:56:25.992Z,0.00
2023-01-30T03:57:25.882Z,0.00
2023-01-30T03:58:25.872Z,0.00
2023-01-30T03:59:25.744Z,0.00
2023-01-30T04:00:25.675Z,0.00
2023-01-30T04:01:25.653Z,0.00
2023-01-30T04:02:25.573Z,0.00
2023-01-30T04:05:43.959Z,0.00
2023-01-30T04:06:44.893Z,0.00
2023-01-30T04:07:44.819Z,0.00
2023-01-30T04:08:44.791Z,0.00
2023-01-30T04:09:44.716Z,0.00
2023-01-30T04:10:44.635Z,0.00
2023-01-30T04:11:44.571Z,0.00
2023-01-30T04:12:44.509Z,0.00
2023-01-30T04:13:44.451Z,0.00
2023-01-30T04:14:44.380Z,0.00
2023-01-30T04:15:44.341Z,0.00
2023-01-30T04:16:44.412Z,0.00
2023-01-30T04:17:44.199Z,0.00
2023-01-30T04:18:44.100Z,0.00
2023-01-30T04:19:44.045Z,0.00
2023-01-30T04:20:44.027Z,0.00
2023-01-30T04:21:43.912Z,0.00
2023-01-30T04:23:04.833Z,0.00
2023-01-30T04:23:43.830Z,0.00
2023-01-30T04:24:43.726Z,0.00
2023-01-30T04:25:43.695Z,0.00
2023-01-30T04:26:43.630Z,0.00
2023-01-30T04:27:43.556Z,0.00
2023-01-30T04:28:43.504Z,0.00
2023-01-30T04:29:43.419Z,0.00
2023-01-30T04:30:43.351Z,0.00
2023-01-30T04:31:43.351Z,0.00
2023-01-30T04:32:43.228Z,0.00
2023-01-30T04:33:43.194Z,0.00
2023-01-30T04:34:43.225Z,0.00
2023-01-30T04:35:43.020Z,0.00
2023-01-30T04:36:42.949Z,0.00
2023-01-30T04:37:42.912Z,0.00
2023-01-30T04:38:42.875Z,0.00
2023-01-30T04:39:42.761Z,0.00
2023-01-30T04:42:22.728Z,0.00
2023-01-30T04:43:23.691Z,0.00
2023-01-30T04:44:23.567Z,0.00
2023-01-30T04:45:23.542Z,0.00
2023-01-30T04:46:23.458Z,0.00
2023-01-30T04:47:23.457Z,0.00
2023-01-30T04:48:23.338Z,0.00
2023-01-30T04:49:23.274Z,0.00
2023-01-30T04:50:23.213Z,0.00
2023-01-30T04:51:23.177Z,0.00
2023-01-30T04:52:23.131Z,0.00
2023-01-30T04:53:23.036Z,0.00
2023-01-30T04:54:22.954Z,0.00
2023-01-30T04:55:22.899Z,0.00
2023-01-30T04:56:22.863Z,0.00
2023-01-30T04:57:22.794Z,0.00
2023-01-30T04:58:43.759Z,0.00
2023-01-30T04:59:22.694Z,0.00
2023-01-30T05:00:22.601Z,0.00
2023-01-30T05:01:22.537Z,0.00
2023-01-30T05:02:23.790Z,0.00
2023-01-30T05:03:22.369Z,0.00
2023-01-30T05:04:22.335Z,0.00
2023-01-30T05:05:22.250Z,0.00
2023-01-30T05:06:23.283Z,0.00
2023-01-30T05:07:22.132Z,0.00
2023-01-30T05:08:22.063Z,0.00
2023-01-30T05:09:22.024Z,0.00
2023-01-30T05:10:21.976Z,0.00
2023-01-30T05:11:21.874Z,0.00
2023-01-30T05:12:21.805Z,0.00
2023-01-30T05:13:21.743Z,0.00
2023-01-30T05:14:21.670Z,0.00
2023-01-30T05:15:21.645Z,0.00
2023-01-30T05:18:30.328Z,0.00
2023-01-30T05:19:31.243Z,0.00
2023-01-30T05:20:31.179Z,0.00
2023-01-30T05:21:31.135Z,0.00
2023-01-30T05:22:31.061Z,0.00
2023-01-30T05:23:30.981Z,0.00
2023-01-30T05:24:30.979Z,0.00
2023-01-30T05:25:30.855Z,0.00
2023-01-30T05:26:30.828Z,0.00
2023-01-30T05:27:30.785Z,0.00
2023-01-30T05:28:30.703Z,0.00
2023-01-30T05:29:30.655Z,0.00
2023-01-30T05:30:30.686Z,0.00
2023-01-30T05:31:30.679Z,0.00
2023-01-30T05:32:30.439Z,0.00
2023-01-30T05:33:30.337Z,0.00
2023-01-30T05:34:51.303Z,0.00
2023-01-30T05:35:30.244Z,0.00
2023-01-30T05:36:30.150Z,0.00
2023-01-30T05:37:30.094Z,0.00
2023-01-30T05:38:30.031Z,0.00
2023-01-30T05:39:29.965Z,0.00
2023-01-30T05:40:29.909Z,0.00
2023-01-30T05:41:29.833Z,0.00
2023-01-30T05:42:29.804Z,0.00
2023-01-30T05:43:29.727Z,0.00
2023-01-30T05:44:29.679Z,0.00
2023-01-30T05:45:29.573Z,0.00
2023-01-30T05:46:29.633Z,0.00
2023-01-30T05:47:29.472Z,0.00
2023-01-30T05:48:29.390Z,0.00
2023-01-30T05:49:29.320Z,0.00
2023-01-30T05:50:29.304Z,0.00
2023-01-30T05:51:29.239Z,0.00
2023-01-30T05:54:08.167Z,0.00
2023-01-30T05:55:09.113Z,0.00
2023-01-30T05:56:08.984Z,0.00
2023-01-30T05:57:08.921Z,0.00
2023-01-30T05:58:08.899Z,0.00
2023-01-30T05:59:08.855Z,0.00
2023-01-30T06:00:08.793Z,0.00
2023-01-30T06:01:08.686Z,0.00
2023-01-30T06:02:11.030Z,0.00
2023-01-30T06:03:08.564Z,0.00
2023-01-30T06:04:08.616Z,0.00
2023-01-30T06:05:08.441Z,0.00
2023-01-30T06:06:09.026Z,0.00
2023-01-30T06:07:08.338Z,0.00
2023-01-30T06:08:08.269Z,0.00
2023-01-30T06:09:08.150Z,0.00
2023-01-30T06:10:29.105Z,0.00
2023-01-30T06:11:08.031Z,0.00
2023-01-30T06:12:07.973Z,0.00
2023-01-30T06:13:07.910Z,0.00
2023-01-30T06:14:07.895Z,0.00
2023-01-30T06:15:07.807Z,0.00
2023-01-30T06:16:07.796Z,0.00
2023-01-30T06:17:07.703Z,0.00
2023-01-30T06:18:07.635Z,0.00
2023-01-30T06:19:07.541Z,0.00
2023-01-30T06:20:07.493Z,0.00
2023-01-30T06:21:07.414Z,0.00
2023-01-30T06:22:07.361Z,0.00
2023-01-30T06:23:07.277Z,0.00
2023-01-30T06:24:07.196Z,0.00
2023-01-30T06:25:07.186Z,0.00
2023-01-30T06:26:09.142Z,0.00
2023-01-30T06:27:07.035Z,0.00
2023-01-30T06:28:07.018Z,0.00
2023-01-30T06:29:06.879Z,0.00
2023-01-30T06:30:06.815Z,0.00
2023-01-30T06:31:06.998Z,0.00
2023-01-30T06:32:06.708Z,0.00
2023-01-30T06:33:06.624Z,0.00
2023-01-30T06:34:06.578Z,0.00
2023-01-30T06:35:06.569Z,0.00
2023-01-30T06:36:06.507Z,0.00
2023-01-30T06:37:06.416Z,0.00
2023-01-30T06:38:06.360Z,0.00
2023-01-30T06:39:06.252Z,0.00
2023-01-30T06:40:06.469Z,0.00
2023-01-30T06:41:06.081Z,0.00
2023-01-30T06:42:06.054Z,0.00
2023-01-30T06:43:05.999Z,0.00
2023-01-30T06:44:05.888Z,0.00
2023-01-30T06:45:07.114Z,0.00
2023-01-30T06:47:14.975Z,0.00
2023-01-30T06:48:15.864Z,0.00
2023-01-30T06:49:15.820Z,0.00
2023-01-30T06:50:15.771Z,0.00
2023-01-30T06:51:18.353Z,0.00
2023-01-30T06:52:15.663Z,0.00
2023-01-30T06:53:15.564Z,0.00
2023-01-30T06:54:15.510Z,0.00
2023-01-30T06:55:16.187Z,0.00
2023-01-30T06:56:16.232Z,0.00
2023-01-30T06:57:15.337Z,0.00
2023-01-30T06:58:15.268Z,0.00
2023-01-30T06:59:15.166Z,0.00
2023-01-30T07:00:15.128Z,0.00
2023-01-30T07:01:15.046Z,0.00
2023-01-30T07:02:15.026Z,0.00
2023-01-30T07:03:14.912Z,0.00
2023-01-30T07:04:35.862Z,0.00
2023-01-30T07:05:14.780Z,0.00
2023-01-30T07:06:14.729Z,0.00
2023-01-30T07:07:14.669Z,0.00
2023-01-30T07:08:14.559Z,0.00
2023-01-30T07:09:14.520Z,0.00
2023-01-30T07:10:14.446Z,0.00
2023-01-30T07:11:14.390Z,0.00
2023-01-30T07:12:14.331Z,0.00
2023-01-30T07:13:14.274Z,0.00
2023-01-30T07:14:14.216Z,0.00
2023-01-30T07:15:14.125Z,0.00
2023-01-30T07:16:14.356Z,0.00
2023-01-30T07:17:14.019Z,0.00
2023-01-30T07:18:13.990Z,0.00
2023-01-30T07:19:13.909Z,0.00
2023-01-30T07:20:13.862Z,0.00
2023-01-30T07:21:13.790Z,0.00
2023-01-30T07:22:13.739Z,0.00
2023-01-30T07:23:13.677Z,0.00
2023-01-30T07:24:13.568Z,0.00
2023-01-30T07:25:13.607Z,0.00
2023-01-30T07:26:13.507Z,0.00
2023-01-30T07:27:13.438Z,0.00
2023-01-30T07:28:13.636Z,0.00
2023-01-30T07:29:13.273Z,0.00
2023-01-30T07:30:13.188Z,0.00
2023-01-30T07:31:13.147Z,0.00
2023-01-30T07:32:13.027Z,5.62
2023-01-30T07:33:13.026Z,5.62
2023-01-30T07:34:34.422Z,5.62
2023-01-30T07:35:12.864Z,0.00
2023-01-30T07:36:12.799Z,0.00
2023-01-30T07:37:12.714Z,5.62
2023-01-30T07:38:12.696Z,5.62
2023-01-30T07:39:12.614Z,5.62
2023-01-30T07:42:30.895Z,11.25
2023-01-30T07:43:31.880Z,11.25
2023-01-30T07:44:31.807Z,11.25
2023-01-30T07:45:31.693Z,11.25
2023-01-30T07:46:31.640Z,11.25
2023-01-30T07:47:31.579Z,5.62
2023-01-30T07:48:31.482Z,5.62
2023-01-30T07:49:31.418Z,5.62
2023-01-30T07:50:31.373Z,5.62
2023-01-30T07:51:31.285Z,5.62
2023-01-30T07:52:31.280Z,5.62
2023-01-30T07:53:31.239Z,5.62
2023-01-30T07:54:31.122Z,5.62
2023-01-30T07:55:31.093Z,5.62
2023-01-30T07:56:31.017Z,11.25
2023-01-30T07:57:30.956Z,11.25
2023-01-30T07:58:30.960Z,11.25
2023-01-30T07:59:30.853Z,11.25
2023-01-30T08:00:30.797Z,11.25
2023-01-30T08:01:30.733Z,16.88
2023-01-30T08:02:30.615Z,16.88
2023-01-30T08:03:30.547Z,16.88
2023-01-30T08:04:30.503Z,11.25
2023-01-30T08:05:30.449Z,5.62
2023-01-30T08:06:30.362Z,5.62
2023-01-30T08:07:30.265Z,5.62
2023-01-30T08:08:30.238Z,5.62
2023-01-30T08:09:30.210Z,5.62
2023-01-30T08:10:30.156Z,11.25
2023-01-30T08:11:50.983Z,11.25
2023-01-30T08:12:29.946Z,11.25
2023-01-30T08:13:29.899Z,16.88
2023-01-30T08:14:29.824Z,22.50
2023-01-30T08:15:29.846Z,28.12
2023-01-30T08:16:29.764Z,28.12
2023-01-30T08:17:29.929Z,33.75
2023-01-30T08:18:29.612Z,33.75
2023-01-30T08:19:29.562Z,28.12
2023-01-30T08:20:29.475Z,22.50
2023-01-30T08:21:29.396Z,16.88
2023-01-30T08:22:29.359Z,16.88
2023-01-30T08:23:29.349Z,16.88
2023-01-30T08:24:31.299Z,16.88
2023-01-30T08:25:29.196Z,16.88
2023-01-30T08:26:29.113Z,16.88
2023-01-30T08:27:29.045Z,16.88
2023-01-30T08:28:28.980Z,16.88
2023-01-30T08:29:49.900Z,22.50
2023-01-30T08:30:28.989Z,28.12
2023-01-30T08:31:28.774Z,22.50
2023-01-30T08:32:28.790Z,22.50
2023-01-30T08:33:28.663Z,22.50
2023-01-30T08:34:28.609Z,22.50
2023-01-30T08:35:28.928Z,28.12
2023-01-30T08:36:28.435Z,22.50
2023-01-30T08:37:28.386Z,16.88
2023-01-30T08:38:28.285Z,16.88
2023-01-30T08:39:28.267Z,16.88
2023-01-30T08:40:28.211Z,11.25
2023-01-30T08:41:28.135Z,11.25
2023-01-30T08:42:28.041Z,5.62
2023-01-30T08:43:28.040Z,5.62
2023-01-30T08:44:27.905Z,5.62
2023-01-30T08:45:27.888Z,5.62
2023-01-30T08:46:27.795Z,5.62
2023-01-30T08:47:28.515Z,5.62
2023-01-30T08:48:29.906Z,5.62
2023-01-30T08:49:27.642Z,5.62
2023-01-30T08:50:27.520Z,11.25
2023-01-30T08:51:27.502Z,5.62
2023-01-30T08:52:27.469Z,5.62
2023-01-30T08:53:27.373Z,5.62
2023-01-30T08:54:27.325Z,5.62
2023-01-30T08:55:27.203Z,11.25
2023-01-30T08:56:27.181Z,11.25
2023-01-30T08:57:27.141Z,11.25
2023-01-30T08:58:27.048Z,16.88
2023-01-30T08:59:27.011Z,16.88
2023-01-30T09:00:26.876Z,11.25
2023-01-30T09:01:26.827Z,11.25
2023-01-30T09:02:26.793Z,11.25
2023-01-30T09:03:26.740Z,11.25
2023-01-30T09:04:26.634Z,11.25
2023-01-30T09:05:47.572Z,16.88
2023-01-30T09:06:26.521Z,11.25
2023-01-30T09:07:26.504Z,11.25
2023-01-30T09:08:26.441Z,11.25
2023-01-30T09:09:26.358Z,5.62
2023-01-30T09:10:26.425Z,11.25
2023-01-30T09:11:26.252Z,11.25
2023-01-30T09:12:26.143Z,11.25
2023-01-30T09:13:26.055Z,11.25
2023-01-30T09:14:26.032Z,16.88
2023-01-30T09:15:25.953Z,22.50
2023-01-30T09:16:25.932Z,28.12
2023-01-30T09:17:25.836Z,33.75
2023-01-30T09:18:25.858Z,45.00
2023-01-30T09:19:25.702Z,50.62
2023-01-30T09:20:25.695Z,45.00
2023-01-30T09:21:25.542Z,39.38
2023-01-30T09:22:26.374Z,39.38
2023-01-30T09:25:04.793Z,39.38
2023-01-30T09:26:05.679Z,45.00
2023-01-30T09:27:05.635Z,50.62
2023-01-30T09:28:05.565Z,56.25
2023-01-30T09:29:05.502Z,67.50
2023-01-30T09:30:05.464Z,67.50
2023-01-30T09:31:05.470Z,78.75
2023-01-30T09:32:05.331Z,78.75
2023-01-30T09:33:05.268Z,84.38
2023-01-30T09:34:05.176Z,95.62
2023-01-30T09:35:05.132Z,78.75
2023-01-30T09:36:05.046Z,67.50
2023-01-30T09:37:05.311Z,73.12
2023-01-30T09:38:04.999Z,78.75
2023-01-30T09:39:04.862Z,78.75
2023-01-30T09:40:04.815Z,67.50
2023-01-30T09:41:04.733Z,67.50
2023-01-30T09:43:44.113Z,50.62
2023-01-30T09:44:45.072Z,50.62
2023-01-30T09:45:44.995Z,50.62
2023-01-30T09:46:44.927Z,56.25
2023-01-30T09:47:44.858Z,73.12
2023-01-30T09:48:44.834Z,84.38
2023-01-30T09:49:44.785Z,56.25
2023-01-30T09:50:44.683Z,61.88
2023-01-30T09:51:44.600Z,78.75
2023-01-30T09:52:44.618Z,78.75
2023-01-30T09:53:44.521Z,90.00
2023-01-30T09:54:44.408Z,78.75
2023-01-30T09:55:44.391Z,78.75
2023-01-30T09:56:44.322Z,61.88
2023-01-30T09:57:44.212Z,56.25
2023-01-30T09:58:44.197Z,50.62
2023-01-30T09:59:44.117Z,56.25
2023-01-30T10:00:44.057Z,50.62
2023-01-30T10:01:43.982Z,45.00
2023-01-30T10:02:43.965Z,45.00
2023-01-30T10:03:43.860Z,45.00
2023-01-30T10:04:59.056Z,45.00
2023-01-30T10:05:43.769Z,56.25
2023-01-30T10:06:43.681Z,56.25
2023-01-30T10:07:43.670Z,73.12
2023-01-30T10:08:43.537Z,140.62
2023-01-30T10:09:43.492Z,196.88
2023-01-30T10:10:43.468Z,129.38
2023-01-30T10:11:43.351Z,135.00
2023-01-30T10:12:43.348Z,118.12
2023-01-30T10:13:43.257Z,84.38
2023-01-30T10:14:43.414Z,84.38
2023-01-30T10:15:43.654Z,95.62
2023-01-30T10:16:43.223Z,112.50
2023-01-30T10:17:42.996Z,151.88
2023-01-30T10:19:06.560Z,191.25
2023-01-30T10:19:42.891Z,123.75
2023-01-30T10:20:42.770Z,90.00
2023-01-30T10:21:42.709Z,78.75
2023-01-30T10:22:42.626Z,84.38
2023-01-30T10:23:42.620Z,106.88
2023-01-30T10:24:42.998Z,123.75
2023-01-30T10:25:42.521Z,157.50
2023-01-30T10:26:42.480Z,185.62
2023-01-30T10:27:42.397Z,101.25
2023-01-30T10:28:44.295Z,191.25
2023-01-30T10:29:46.127Z,191.25
2023-01-30T10:30:44.324Z,101.25
2023-01-30T10:31:47.087Z,157.50
2023-01-30T10:32:44.131Z,112.50
2023-01-30T10:33:52.628Z,140.62
2023-01-30T10:34:42.648Z,95.62
2023-01-30T10:35:41.802Z,112.50
2023-01-30T10:37:02.817Z,123.75
2023-01-30T10:37:41.727Z,123.75
2023-01-30T10:38:42.322Z,84.38
2023-01-30T10:39:54.268Z,146.25
2023-01-30T10:40:42.121Z,202.50
2023-01-30T10:41:41.681Z,202.50
2023-01-30T10:42:41.396Z,146.25
2023-01-30T10:43:42.137Z,174.38
2023-01-30T10:44:41.293Z,196.88
2023-01-30T10:45:41.209Z,191.25
2023-01-30T10:46:41.206Z,106.88
2023-01-30T10:47:47.098Z,95.62
2023-01-30T10:48:43.739Z,73.12
2023-01-30T10:49:41.019Z,61.88
2023-01-30T10:50:40.869Z,78.75
2023-01-30T10:51:40.801Z,101.25
2023-01-30T10:52:40.775Z,118.12
2023-01-30T10:53:40.689Z,140.62
2023-01-30T10:54:40.654Z,106.88
2023-01-30T10:55:40.633Z,106.88
2023-01-30T10:56:40.480Z,73.12
2023-01-30T10:57:40.450Z,73.12
2023-01-30T10:58:40.576Z,90.00
2023-01-30T10:59:40.357Z,90.00
2023-01-30T11:00:40.300Z,61.88
2023-01-30T11:01:40.201Z,45.00
2023-01-30T11:02:40.174Z,33.75
2023-01-30T11:03:40.057Z,33.75
2023-01-30T11:04:40.033Z,28.12
2023-01-30T11:05:39.969Z,45.00
2023-01-30T11:06:39.955Z,50.62
2023-01-30T11:07:39.825Z,56.25
2023-01-30T11:08:39.757Z,45.00
2023-01-30T11:09:39.691Z,56.25
2023-01-30T11:10:39.605Z,50.62
2023-01-30T11:11:39.589Z,45.00
2023-01-30T11:13:48.680Z,28.12
2023-01-30T11:14:49.642Z,22.50
2023-01-30T11:15:49.619Z,33.75
2023-01-30T11:16:49.456Z,33.75
2023-01-30T11:17:49.428Z,33.75
2023-01-30T11:19:49.272Z,39.38
2023-01-30T11:20:49.249Z,33.75
2023-01-30T11:21:49.167Z,45.00
2023-01-30T11:22:49.082Z,50.62
2023-01-30T11:23:49.076Z,39.38
2023-01-30T11:24:49.445Z,33.75
2023-01-30T11:25:51.159Z,45.00
2023-01-30T11:26:48.971Z,78.75
2023-01-30T11:27:48.784Z,140.62
2023-01-30T11:28:49.132Z,118.12
2023-01-30T11:29:48.683Z,157.50
2023-01-30T11:32:27.639Z,78.75
2023-01-30T11:33:28.465Z,101.25
2023-01-30T11:34:28.383Z,95.62
2023-01-30T11:35:28.279Z,90.00
2023-01-30T11:36:28.265Z,84.38
2023-01-30T11:37:28.184Z,84.38
2023-01-30T11:38:28.158Z,78.75
2023-01-30T11:39:28.217Z,78.75
2023-01-30T11:40:29.351Z,73.12
2023-01-30T11:41:27.899Z,73.12
2023-01-30T11:42:27.912Z,73.12
2023-01-30T11:43:27.817Z,73.12
2023-01-30T11:44:27.712Z,78.75
2023-01-30T11:45:27.686Z,90.00
2023-01-30T11:46:27.577Z,123.75
2023-01-30T11:47:27.550Z,112.50
2023-01-30T11:49:03.619Z,101.25
2023-01-30T11:49:56.216Z,118.12
2023-01-30T11:50:29.667Z,95.62
2023-01-30T11:51:27.969Z,90.00
2023-01-30T11:52:27.210Z,101.25
2023-01-30T11:53:27.205Z,112.50
2023-01-30T11:54:27.140Z,101.25
2023-01-30T11:55:27.048Z,123.75
2023-01-30T11:56:26.960Z,151.88
2023-01-30T11:57:26.919Z,140.62
2023-01-30T11:58:26.825Z,118.12
2023-01-30T11:59:26.762Z,106.88
2023-01-30T12:00:26.707Z,118.12
2023-01-30T12:01:26.620Z,140.62
2023-01-30T12:02:26.736Z,123.75
2023-01-30T12:03:28.003Z,106.88
2023-01-30T12:04:28.626Z,84.38
2023-01-30T12:05:27.567Z,61.88
2023-01-30T12:06:50.466Z,50.62
2023-01-30T12:07:30.869Z,78.75
2023-01-30T12:08:40.715Z,84.38
2023-01-30T12:09:26.217Z,78.75
2023-01-30T12:10:26.206Z,73.12
2023-01-30T12:11:28.137Z,56.25
2023-01-30T12:12:53.952Z,45.00
2023-01-30T12:16:39.215Z,50.62
2023-01-30T12:16:44.650Z,28.12
2023-01-30T12:17:44.168Z,28.12
2023-01-30T12:18:44.045Z,28.12
2023-01-30T12:19:44.058Z,39.38
2023-01-30T12:20:43.929Z,56.25
2023-01-30T12:21:44.584Z,56.25
2023-01-30T12:22:43.851Z,78.75
2023-01-30T12:24:04.743Z,90.00
2023-01-30T12:24:44.383Z,118.12
2023-01-30T12:25:43.647Z,135.00
2023-01-30T12:26:43.624Z,129.38
2023-01-30T12:27:43.497Z,140.62
2023-01-30T12:28:43.438Z,123.75
2023-01-30T12:29:43.395Z,84.38
2023-01-30T12:30:43.352Z,50.62
2023-01-30T12:31:43.277Z,28.12
2023-01-30T12:32:43.166Z,22.50
2023-01-30T12:33:43.133Z,22.50
2023-01-30T12:34:43.093Z,22.50
2023-01-30T12:35:43.248Z,22.50
2023-01-30T12:36:43.000Z,33.75
2023-01-30T12:37:42.875Z,39.38
2023-01-30T12:38:42.956Z,39.38
2023-01-30T12:39:42.770Z,33.75
2023-01-30T12:40:44.151Z,39.38
2023-01-30T12:41:42.664Z,61.88
2023-01-30T12:42:42.568Z,67.50
2023-01-30T12:43:42.538Z,61.88
2023-01-30T12:44:42.463Z,50.62
2023-01-30T12:45:42.437Z,45.00
2023-01-30T12:46:42.345Z,28.12
2023-01-30T12:47:42.262Z,22.50
2023-01-30T12:48:48.266Z,28.12
2023-01-30T12:49:42.162Z,39.38
2023-01-30T12:50:42.054Z,78.75
2023-01-30T12:51:41.985Z,73.12
2023-01-30T12:52:41.931Z,73.12
2023-01-30T12:53:41.904Z,112.50
2023-01-30T12:54:41.848Z,140.62
2023-01-30T12:55:41.831Z,168.75
2023-01-30T12:56:41.712Z,157.50
2023-01-30T12:57:41.635Z,196.88
2023-01-30T12:58:41.562Z,225.00
2023-01-30T12:59:42.707Z,275.62
2023-01-30T13:00:41.455Z,326.25
2023-01-30T13:01:41.463Z,360.00
2023-01-30T13:02:41.351Z,281.25
2023-01-30T13:03:41.309Z,281.25
2023-01-30T13:05:01.832Z,230.62
2023-01-30T13:05:41.193Z,129.38
2023-01-30T13:06:41.055Z,146.25
2023-01-30T13:07:41.038Z,281.25
2023-01-30T13:08:40.986Z,354.38
2023-01-30T13:09:40.859Z,286.88
2023-01-30T13:10:40.845Z,157.50
2023-01-30T13:11:40.788Z,123.75
2023-01-30T13:12:40.670Z,123.75
2023-01-30T13:13:40.691Z,135.00
2023-01-30T13:14:40.567Z,146.25
2023-01-30T13:15:40.537Z,118.12
2023-01-30T13:16:40.415Z,90.00
2023-01-30T13:17:40.458Z,73.12
2023-01-30T13:18:40.346Z,67.50
2023-01-30T13:19:41.461Z,67.50
2023-01-30T13:20:40.164Z,73.12
2023-01-30T13:21:40.107Z,146.25
2023-01-30T13:22:40.039Z,123.75
2023-01-30T13:23:39.999Z,84.38
2023-01-30T13:24:39.924Z,67.50
2023-01-30T13:25:39.901Z,67.50
2023-01-30T13:26:39.920Z,78.75
2023-01-30T13:27:39.756Z,67.50
2023-01-30T13:28:39.701Z,61.88
2023-01-30T13:29:39.619Z,67.50
2023-01-30T13:30:40.388Z,67.50
2023-01-30T13:31:39.566Z,151.88
2023-01-30T13:32:39.385Z,151.88
2023-01-30T13:33:39.354Z,101.25
2023-01-30T13:34:39.275Z,78.75
2023-01-30T13:36:48.437Z,123.75